F/V Iroise — FGRR — position and weather

sailwx.info

Track history (hours):
 
Tides and Currents Weather Stations Pressure Air Temp Water Temp Dewpoint Dewpoint Depression Visibility Wind Speed Wind Dir Waves Ship Positions

F/V Iroise

Last reported at 2018-Aug-05 14:43 UTC. Time now 2018-Aug-14 23:42 UTC.
Position N 48°11' W 004°50'.
Warning: this ship's position is 9 days out of date.

Length 33 m; draft 4.5 m.

Type: Fishing. MMSI: 227347000.

Date/timePositionNaut miles runAvg speedWind from/ knotsBaromVisibWave heightAir tempDewpointWater temp
2018-Aug-05 14:43N 48°11' W 004°50'211.0
2018-Aug-05 14:30N 48°10' W 004°46'1111.1
2018-Aug-05 13:30N 48°08' W 004°30'510.1
2018-Aug-05 13:00N 48°08' W 004°22'3 0.3
2018-Aug-05 04:14N 48°06' W 004°19'1 4.2
2018-Aug-05 03:58N 48°07' W 004°19'2 4.6
2018-Aug-05 03:30N 48°08' W 004°22'510.7
2018-Aug-05 03:00N 48°08' W 004°30'510.5
2018-Aug-05 02:30N 48°07' W 004°38'510.3
2018-Aug-05 02:00N 48°09' W 004°45'510.6
2018-Aug-05 01:30N 48°12' W 004°52'  
Track history (hours):
 
Tides and Currents Weather Stations Pressure Air Temp Water Temp Dewpoint Dewpoint Depression Visibility Wind Speed Wind Dir Waves Ship Positions

F/V Iroise

Last reported at 2018-Aug-05 14:43 UTC. Time now 2018-Aug-14 23:42 UTC.
Position N 48°11' W 004°50'.
Warning: this ship's position is 9 days out of date.

Length 33 m; draft 4.5 m.

Type: Fishing. MMSI: 227347000.

Date/timePositionNaut miles runAvg speedWind from/ knotsBaromVisibWave heightAir tempDewpointWater temp
2018-Aug-05 14:43N 48°11' W 004°50'211.0
2018-Aug-05 14:30N 48°10' W 004°46'1111.1
2018-Aug-05 13:30N 48°08' W 004°30'510.1
2018-Aug-05 13:00N 48°08' W 004°22'3 0.3
2018-Aug-05 04:14N 48°06' W 004°19'1 4.2
2018-Aug-05 03:58N 48°07' W 004°19'2 4.6
2018-Aug-05 03:30N 48°08' W 004°22'510.7
2018-Aug-05 03:00N 48°08' W 004°30'510.5
2018-Aug-05 02:30N 48°07' W 004°38'510.3
2018-Aug-05 02:00N 48°09' W 004°45'510.6
2018-Aug-05 01:30N 48°12' W 004°52'  

Dump ship's entire track history